Time;durP1;ratioP1;P1;durP2;ratioP2;P2;SDS_P1;SDS_P2;PMS_P1;PMS_P2;Temp;Humidity;BMP_temperature;BMP_pressure;BME280_temperature;BME280_humidity;BME280_pressure;Samples;Min_cycle;Max_cycle;Signal;HPM_P1;HPM_P2
2023/01/17 00:01:19;;;;;;;24.97;23.93;;;;;;;4.30;100.00;97692.91;4984541;28;20824;-51
2023/01/17 00:12:04;;;;;;;24.90;24.00;;;;;;;4.28;100.00;97687.06;4984879;28;20513;-50
2023/01/17 00:14:33;;;;;;;25.83;24.50;;;;;;;4.25;100.00;97682.25;4984040;28;21017;-48
2023/01/17 00:17:01;;;;;;;24.97;23.90;;;;;;;4.22;100.00;97683.50;4984602;28;20454;-46
2023/01/17 01:34:50;;;;;;;24.47;23.37;;;;;;;3.16;100.00;97644.06;5005505;28;20449;-48
2023/01/17 01:37:19;;;;;;;24.33;23.23;;;;;;;3.14;100.00;97647.94;5002066;28;20442;-50
2023/01/17 01:39:46;;;;;;;23.93;23.03;;;;;;;3.16;100.00;97643.28;4989167;28;20441;-48
2023/01/17 01:42:15;;;;;;;24.40;23.40;;;;;;;3.16;100.00;97643.28;5003610;28;20426;-44
2023/01/17 01:44:45;;;;;;;24.37;23.37;;;;;;;3.15;100.00;97639.03;5005237;28;20473;-52
2023/01/17 01:47:22;;;;;;;23.83;22.93;;;;;;;3.15;100.00;97642.47;5006222;28;20514;-49
2023/01/17 01:49:50;;;;;;;23.87;22.77;;;;;;;3.13;100.00;97643.72;5005763;28;20426;-48
2023/01/17 01:52:23;;;;;;;23.57;22.60;;;;;;;3.14;100.00;97635.59;5006644;28;20444;-47
2023/01/17 01:54:57;;;;;;;24.17;23.07;;;;;;;3.12;100.00;97635.00;5005402;28;20446;-46
2023/01/17 01:57:32;;;;;;;24.07;23.00;;;;;;;3.11;100.00;97624.69;5004980;28;20432;-52
2023/01/17 02:00:04;;;;;;;24.67;23.67;;;;;;;3.12;100.00;97623.69;5005690;28;20429;-48
2023/01/17 02:02:32;;;;;;;24.20;23.00;;;;;;;3.10;100.00;97625.75;5004857;28;20441;-44
2023/01/17 02:05:00;;;;;;;24.60;23.50;;;;;;;3.06;100.00;97620.13;5004888;28;20466;-45
2023/01/17 02:07:36;;;;;;;24.53;23.53;;;;;;;3.04;100.00;97619.53;5004879;28;20434;-48
2023/01/17 02:10:05;;;;;;;23.67;22.73;;;;;;;3.02;100.00;97613.69;5005410;28;20505;-48
2023/01/17 02:12:33;;;;;;;24.80;23.60;;;;;;;3.03;100.00;97612.66;5003178;28;20430;-47
2023/01/17 02:15:00;;;;;;;24.30;23.30;;;;;;;3.05;100.00;97615.06;5004375;28;20480;-46
2023/01/17 02:17:42;;;;;;;25.20;24.20;;;;;;;3.05;100.00;97609.78;5002507;28;20450;-46
2023/01/17 02:20:56;;;;;;;24.07;23.20;;;;;;;3.03;100.00;97610.03;4996401;28;20441;-47
2023/01/17 02:23:43;;;;;;;25.23;23.93;;;;;;;3.05;100.00;97607.16;5004119;28;20482;-49
2023/01/17 02:26:37;;;;;;;24.37;23.40;;;;;;;3.05;100.00;97607.16;5005421;28;20441;-46
2023/01/17 02:29:29;;;;;;;24.97;23.97;;;;;;;3.05;100.00;97615.88;5004321;28;20434;-46
2023/01/17 02:32:04;;;;;;;24.73;23.73;;;;;;;3.05;100.00;97615.88;5005617;28;20496;-52
2023/01/17 02:34:41;;;;;;;25.07;23.90;;;;;;;3.07;100.00;97607.75;5004002;28;20461;-48
2023/01/17 02:37:16;;;;;;;25.60;24.50;;;;;;;3.08;100.00;97602.25;5003481;28;20935;-50
2023/01/17 02:39:56;;;;;;;24.63;23.63;;;;;;;3.11;100.00;97604.44;4988357;28;20431;-44
2023/01/17 02:42:34;;;;;;;25.27;24.17;;;;;;;3.12;100.00;97605.25;5004356;28;20441;-49
2023/01/17 02:45:02;;;;;;;25.27;24.17;;;;;;;3.12;100.00;97602.59;5004968;28;20477;-48
2023/01/17 02:47:32;;;;;;;25.10;24.10;;;;;;;3.16;100.00;97606.41;5005102;28;20434;-45
2023/01/17 02:50:05;;;;;;;24.97;23.87;;;;;;;3.18;100.00;97602.53;5004705;28;20430;-52
2023/01/17 02:52:50;;;;;;;25.17;24.07;;;;;;;3.20;100.00;97597.81;5004358;28;20444;-49
2023/01/17 02:55:28;;;;;;;26.20;25.10;;;;;;;3.22;100.00;97589.72;5004749;28;20453;-47
2023/01/17 02:58:14;;;;;;;26.43;25.23;;;;;;;3.24;100.00;97587.66;5003965;28;20436;-45
2023/01/17 03:00:55;;;;;;;26.57;25.37;;;;;;;3.23;100.00;97599.19;5003830;28;20943;-49
2023/01/17 03:03:32;;;;;;;26.97;25.57;;;;;;;3.25;100.00;97600.59;5003984;28;20470;-47
2023/01/17 03:06:06;;;;;;;25.60;24.53;;;;;;;3.25;100.00;97595.34;5004595;28;20429;-48
2023/01/17 03:08:34;;;;;;;25.00;23.90;;;;;;;3.24;100.00;97592.91;5004367;28;20444;-48
2023/01/17 03:11:02;;;;;;;26.30;25.20;;;;;;;3.19;100.00;97601.50;5003821;28;20418;-49
2023/01/17 03:13:29;;;;;;;24.73;23.73;;;;;;;3.14;100.00;97604.00;5003819;28;20473;-49
2023/01/17 03:15:57;;;;;;;26.07;24.87;;;;;;;3.13;100.00;97605.03;5004395;28;20488;-51
2023/01/17 03:18:27;;;;;;;25.50;24.43;;;;;;;3.11;100.00;97596.53;5004319;28;20473;-48
2023/01/17 03:20:54;;;;;;;25.13;24.00;;;;;;;3.08;100.00;97598.81;5003869;28;20456;-47
2023/01/17 03:23:22;;;;;;;24.90;23.80;;;;;;;3.08;100.00;97591.72;5003235;28;20495;-48
2023/01/17 03:25:49;;;;;;;26.60;25.33;;;;;;;3.07;100.00;97589.31;5003688;28;20441;-46
2023/01/17 03:28:17;;;;;;;27.00;25.67;;;;;;;3.08;100.00;97594.34;5003594;28;20842;-46
2023/01/17 03:30:45;;;;;;;26.47;25.07;;;;;;;3.08;100.00;97583.00;5003797;28;20438;-50
2023/01/17 03:33:12;;;;;;;26.37;25.17;;;;;;;3.11;100.00;97590.47;5002401;28;20454;-46
2023/01/17 03:35:41;;;;;;;26.30;24.80;;;;;;;3.13;100.00;97593.69;5002780;28;20454;-50
2023/01/17 03:38:09;;;;;;;26.77;25.37;;;;;;;3.15;100.00;97589.81;4996180;28;20967;-47
2023/01/17 03:40:36;;;;;;;26.17;24.90;;;;;;;3.17;100.00;97590.38;4996068;28;20529;-46
2023/01/17 03:43:04;;;;;;;26.73;25.33;;;;;;;3.19;100.00;97598.88;5003588;28;20461;-51
2023/01/17 03:45:32;;;;;;;26.30;25.10;;;;;;;3.20;100.00;97595.19;5003949;28;20487;-47
2023/01/17 03:47:59;;;;;;;26.50;25.17;;;;;;;3.19;100.00;97596.22;5004622;28;20423;-48
2023/01/17 03:50:27;;;;;;;25.40;24.20;;;;;;;3.19;100.00;97584.91;5003873;28;20457;-52
2023/01/17 03:52:56;;;;;;;27.10;25.90;;;;;;;3.19;100.00;97587.53;5004069;28;20837;-49
2023/01/17 03:55:24;;;;;;;25.90;24.70;;;;;;;3.19;100.00;97588.34;5004298;28;20493;-46
2023/01/17 03:57:51;;;;;;;26.47;25.17;;;;;;;3.20;100.00;97586.47;5003840;28;20437;-51
2023/01/17 04:00:20;;;;;;;26.13;24.93;;;;;;;3.18;100.00;97578.81;5004138;28;20434;-47
2023/01/17 04:02:48;;;;;;;27.13;25.90;;;;;;;3.21;100.00;97567.03;5002549;28;20498;-50
2023/01/17 04:05:16;;;;;;;28.07;26.67;;;;;;;3.23;100.00;97575.50;5002520;28;20488;-48
2023/01/17 04:07:43;;;;;;;27.17;25.83;;;;;;;3.26;100.00;97573.22;5003235;28;20433;-51
2023/01/17 04:10:12;;;;;;;26.80;25.60;;;;;;;3.30;100.00;97573.56;5003551;28;20426;-46
2023/01/17 04:12:40;;;;;;;28.10;26.70;;;;;;;3.29;100.00;97567.50;5002968;28;20434;-52
2023/01/17 04:15:08;;;;;;;28.53;27.03;;;;;;;3.30;100.00;97563.84;5002752;28;20538;-50
2023/01/17 04:17:36;;;;;;;28.70;27.30;;;;;;;3.33;100.00;97573.13;5002421;28;20429;-50
2023/01/17 04:20:04;;;;;;;28.80;27.30;;;;;;;3.36;100.00;97562.13;5002736;28;20446;-45
2023/01/17 04:22:32;;;;;;;29.60;27.93;;;;;;;3.38;100.00;97565.31;5002900;28;20472;-47
2023/01/17 04:24:59;;;;;;;28.03;26.70;;;;;;;3.39;100.00;97553.78;5002912;28;20478;-49
2023/01/17 04:27:30;;;;;;;28.73;27.13;;;;;;;3.41;100.00;97551.69;5003042;28;20510;-46
2023/01/17 04:29:57;;;;;;;29.20;27.23;;;;;;;3.45;100.00;97558.13;5002472;28;20850;-53
2023/01/17 04:32:25;;;;;;;29.90;28.33;;;;;;;3.46;100.00;97554.47;5002191;28;20442;-47
2023/01/17 04:34:52;;;;;;;28.67;27.00;;;;;;;3.48;100.00;97549.78;5002678;28;20457;-46
2023/01/17 04:37:20;;;;;;;29.53;28.13;;;;;;;3.50;100.00;97550.34;4982114;28;20443;-48
2023/01/17 04:39:48;;;;;;;31.87;30.00;;;;;;;3.52;100.00;97553.56;4981594;28;20430;-47
2023/01/17 04:42:15;;;;;;;31.30;29.40;;;;;;;3.54;100.00;97553.31;4990709;28;20972;-45
2023/01/17 04:44:44;;;;;;;32.73;30.87;;;;;;;3.55;100.00;97547.03;4981989;28;21028;-44
2023/01/17 04:47:12;;;;;;;32.77;30.97;;;;;;;3.55;100.00;97553.09;4982251;28;20457;-46
2023/01/17 04:49:40;;;;;;;34.37;32.10;;;;;;;3.58;100.00;97546.56;4983039;28;20892;-44
2023/01/17 04:52:10;;;;;;;33.43;31.40;;;;;;;3.59;100.00;97546.31;4983007;28;20481;-45
2023/01/17 04:54:38;;;;;;;32.80;30.80;;;;;;;3.61;100.00;97548.75;4982107;28;20463;-46
2023/01/17 04:57:05;;;;;;;34.40;31.97;;;;;;;3.62;100.00;97555.59;4983025;28;20441;-44
2023/01/17 04:59:33;;;;;;;35.07;32.90;;;;;;;3.61;100.00;97551.38;4983062;28;20447;-51
2023/01/17 05:02:02;;;;;;;35.17;32.47;;;;;;;3.61;100.00;97557.47;4983027;28;20469;-46
2023/01/17 05:04:30;;;;;;;34.30;32.10;;;;;;;3.64;100.00;97548.28;4981724;28;20610;-46
2023/01/17 05:06:57;;;;;;;34.90;32.60;;;;;;;3.62;100.00;97551.13;4982640;28;20435;-48
2023/01/17 05:09:25;;;;;;;36.53;33.93;;;;;;;3.63;100.00;97551.94;4982876;28;20434;-49
2023/01/17 05:11:54;;;;;;;36.73;33.63;;;;;;;3.66;100.00;97556.75;4982373;28;20454;-47
2023/01/17 05:14:25;;;;;;;37.17;34.57;;;;;;;3.66;100.00;97548.84;4982332;28;20478;-49
2023/01/17 05:16:52;;;;;;;35.57;33.07;;;;;;;3.66;100.00;97554.94;5001471;22;20488;-47
2023/01/17 05:19:21;;;;;;;36.47;33.97;;;;;;;3.69;100.00;97562.38;4994166;28;20460;-48
2023/01/17 05:21:49;;;;;;;36.40;33.90;;;;;;;3.70;100.00;97558.69;5002548;28;20438;-48
2023/01/17 05:24:17;;;;;;;36.20;33.37;;;;;;;3.70;100.00;97560.53;5001565;28;20462;-47
2023/01/17 05:26:45;;;;;;;37.70;35.03;;;;;;;3.70;100.00;97563.97;5001648;28;20446;-45
2023/01/17 05:29:14;;;;;;;38.93;35.53;;;;;;;3.72;100.00;97554.00;5001557;28;20504;-47
2023/01/17 05:31:41;;;;;;;38.57;35.87;;;;;;;3.72;100.00;97561.09;5001889;28;20434;-50
2023/01/17 05:34:09;;;;;;;39.80;37.10;;;;;;;3.73;100.00;97558.22;5001846;28;20461;-45
2023/01/17 05:36:38;;;;;;;39.07;36.30;;;;;;;3.75;100.00;97558.81;5002297;28;20480;-50
2023/01/17 05:39:06;;;;;;;40.27;37.13;;;;;;;3.76;100.00;97567.53;4970937;28;20440;-46
2023/01/17 05:41:33;;;;;;;38.80;35.93;;;;;;;3.75;100.00;97564.09;5002441;28;20445;-47
2023/01/17 05:44:01;;;;;;;38.83;36.13;;;;;;;3.76;100.00;97572.81;5001852;28;20537;-47
2023/01/17 05:46:29;;;;;;;39.53;36.73;;;;;;;3.76;100.00;97565.69;5002745;28;20477;-46
2023/01/17 05:48:57;;;;;;;38.93;36.23;;;;;;;3.76;100.00;97586.75;5006164;28;20438;-44
2023/01/17 05:51:25;;;;;;;39.30;36.40;;;;;;;3.77;100.00;97590.19;5005591;28;20800;-44
2023/01/17 05:53:54;;;;;;;37.93;35.20;;;;;;;3.79;100.00;97580.25;5005287;28;20468;-45
2023/01/17 05:56:22;;;;;;;39.60;36.70;;;;;;;3.80;100.00;97581.84;5005212;28;20445;-48
2023/01/17 05:58:49;;;;;;;38.77;36.07;;;;;;;3.79;100.00;97581.03;5005355;28;20496;-46
2023/01/17 06:01:18;;;;;;;40.60;37.57;;;;;;;3.81;100.00;97583.44;5005367;28;20434;-45
2023/01/17 06:03:45;;;;;;;40.03;37.13;;;;;;;3.81;100.00;97584.25;5004858;28;20999;-44
2023/01/17 06:06:13;;;;;;;40.23;37.23;;;;;;;3.83;100.00;97581.38;5004636;28;20485;-47
2023/01/17 06:08:41;;;;;;;42.27;39.07;;;;;;;3.82;100.00;97577.94;5005139;28;20442;-46
2023/01/17 06:11:10;;;;;;;43.43;39.83;;;;;;;3.85;100.00;97574.84;5005481;28;20504;-43
2023/01/17 06:13:37;;;;;;;43.10;39.60;;;;;;;3.85;100.00;97582.75;5004544;28;20476;-44
2023/01/17 06:16:05;;;;;;;41.83;38.50;;;;;;;3.86;100.00;97589.63;5004323;28;20540;-47
2023/01/17 06:18:33;;;;;;;41.77;38.57;;;;;;;3.86;100.00;97589.63;5004883;28;20441;-46
2023/01/17 06:21:01;;;;;;;42.20;38.80;;;;;;;3.86;100.00;97596.72;5004443;28;20806;-44
2023/01/17 06:23:29;;;;;;;39.53;36.63;;;;;;;3.85;100.00;97601.19;5003904;28;20655;-47
2023/01/17 06:25:56;;;;;;;39.07;36.50;;;;;;;3.84;100.00;97601.44;5004631;28;20501;-50
2023/01/17 06:28:25;;;;;;;39.00;36.17;;;;;;;3.83;100.00;97605.91;5004784;28;20477;-49
2023/01/17 06:30:53;;;;;;;37.83;34.93;;;;;;;3.78;100.00;97610.25;5004677;28;20798;-52
2023/01/17 06:33:21;;;;;;;36.30;33.97;;;;;;;3.69;100.00;97615.06;5004748;28;20473;-44
2023/01/17 06:35:49;;;;;;;32.80;30.70;;;;;;;3.68;100.00;97617.94;5003977;28;20477;-43
2023/01/17 06:38:16;;;;;;;30.80;29.13;;;;;;;3.59;100.00;97620.09;4997028;28;20447;-44
2023/01/17 06:40:44;;;;;;;28.13;26.80;;;;;;;3.47;100.00;97634.28;4996337;28;20785;-44
2023/01/17 06:43:12;;;;;;;27.60;26.40;;;;;;;3.41;100.00;97638.63;5003375;28;20466;-44
2023/01/17 06:45:41;;;;;;;28.30;27.00;;;;;;;3.36;100.00;97649.03;5003380;28;21198;-45
2023/01/17 06:48:09;;;;;;;26.20;25.20;;;;;;;3.26;100.00;97649.59;5004684;28;20434;-43
2023/01/17 06:50:37;;;;;;;26.07;24.70;;;;;;;3.08;100.00;97673.34;5003892;28;20434;-43
2023/01/17 06:53:06;;;;;;;27.10;26.00;;;;;;;2.92;100.00;97662.63;5003465;28;20469;-44
2023/01/17 06:55:38;;;;;;;26.20;25.10;;;;;;;2.58;100.00;97687.72;5002821;28;20429;-44
2023/01/17 06:58:06;;;;;;;26.50;25.50;;;;;;;2.41;100.00;97679.63;5001845;28;20434;-44
2023/01/17 07:00:34;;;;;;;26.97;25.90;;;;;;;2.34;100.00;97685.97;5003235;28;20433;-44
2023/01/17 07:03:03;;;;;;;36.53;35.03;;;;;;;2.15;100.00;97708.81;5002359;28;20469;-46
2023/01/17 07:05:31;;;;;;;38.93;37.03;;;;;;;2.10;100.00;97732.31;5002723;28;20501;-46
2023/01/17 07:07:59;;;;;;;37.70;36.00;;;;;;;2.11;100.00;97728.66;5003138;28;20526;-46
2023/01/17 07:10:27;;;;;;;39.67;38.00;;;;;;;2.05;100.00;97738.22;5003202;28;20557;-46
2023/01/17 07:12:58;;;;;;;39.23;37.43;;;;;;;2.07;100.00;97735.38;5002769;28;20457;-48
2023/01/17 07:15:26;;;;;;;39.40;37.27;;;;;;;2.06;100.00;97746.91;5003121;28;20430;-44
2023/01/17 07:17:53;;;;;;;34.33;32.73;;;;;;;1.96;100.00;97743.97;5002588;28;20489;-44
2023/01/17 07:20:22;;;;;;;35.20;33.73;;;;;;;1.97;100.00;97748.22;5002483;28;20792;-46
2023/01/17 07:22:50;;;;;;;34.77;33.37;;;;;;;1.99;100.00;97759.31;5002731;28;20462;-46
2023/01/17 07:25:18;;;;;;;36.03;34.23;;;;;;;2.03;100.00;97757.88;5002405;28;20426;-44
2023/01/17 07:27:46;;;;;;;36.90;35.30;;;;;;;2.03;100.00;97765.75;5002402;28;20530;-47
2023/01/17 07:30:14;;;;;;;35.30;33.50;;;;;;;1.92;100.00;97761.16;5003214;28;20434;-46
2023/01/17 07:32:42;;;;;;;36.53;34.73;;;;;;;1.84;100.00;97782.44;5002711;28;20505;-48
2023/01/17 07:35:10;;;;;;;34.30;32.70;;;;;;;1.68;100.00;97786.38;5003000;28;20431;-44
2023/01/17 07:37:39;;;;;;;41.10;38.23;;;;;;;1.59;100.00;97788.47;4998534;28;20473;-45
2023/01/17 07:40:07;;;;;;;42.57;40.67;;;;;;;1.62;100.00;97790.66;4992329;28;20464;-48
2023/01/17 07:42:35;;;;;;;43.93;42.03;;;;;;;1.53;100.00;97789.31;5002182;28;20433;-49
2023/01/17 07:45:03;;;;;;;43.17;41.37;;;;;;;1.50;100.00;97794.97;5002637;28;20438;-46
2023/01/17 07:47:32;;;;;;;59.73;57.13;;;;;;;1.49;100.00;97800.47;5002701;28;20486;-47
2023/01/17 07:50:01;;;;;;;90.20;86.30;;;;;;;1.48;100.00;97809.34;5002135;28;20452;-47
2023/01/17 07:52:29;;;;;;;123.63;118.50;;;;;;;1.45;100.00;97807.94;5001600;28;20496;-43
2023/01/17 07:54:58;;;;;;;102.13;97.73;;;;;;;1.49;100.00;97832.75;5002480;28;20456;-48
2023/01/17 07:57:25;;;;;;;70.87;67.67;;;;;;;1.48;100.00;97836.41;5002791;28;20442;-43
2023/01/17 07:59:53;;;;;;;54.87;52.17;;;;;;;1.54;100.00;97842.63;5001641;28;20434;-45
2023/01/17 08:02:23;;;;;;;48.80;46.60;;;;;;;1.53;100.00;97833.13;5001977;28;20434;-43
2023/01/17 08:04:51;;;;;;;43.57;41.67;;;;;;;1.56;100.00;97838.78;5001380;28;20446;-47
2023/01/17 08:07:19;;;;;;;41.97;40.00;;;;;;;1.63;100.00;97852.69;5001661;28;20474;-43
2023/01/17 08:09:48;;;;;;;41.33;39.50;;;;;;;1.72;100.00;97855.06;5001822;28;20438;-45
2023/01/17 08:12:17;;;;;;;39.30;37.07;;;;;;;1.70;100.00;97855.31;5002060;28;20434;-45
2023/01/17 08:14:45;;;;;;;38.23;36.40;;;;;;;1.79;100.00;97855.84;5000803;28;20840;-43
2023/01/17 08:17:15;;;;;;;38.73;36.73;;;;;;;1.86;100.00;97860.03;5000951;28;20462;-43
2023/01/17 08:19:44;;;;;;;38.47;36.77;;;;;;;2.00;100.00;97860.78;5001042;28;20515;-45
2023/01/17 08:22:11;;;;;;;37.50;35.50;;;;;;;2.06;100.00;97865.19;5001204;28;20456;-43
2023/01/17 08:24:40;;;;;;;38.43;36.57;;;;;;;2.12;100.00;97862.50;4999784;28;21010;-43
2023/01/17 08:27:08;;;;;;;37.60;35.63;;;;;;;2.22;100.00;97869.94;5000602;28;20502;-43
2023/01/17 08:29:40;;;;;;;37.67;35.17;;;;;;;2.25;100.00;97872.13;5000726;28;20931;-44
2023/01/17 08:32:08;;;;;;;37.40;35.50;;;;;;;2.35;100.00;97876.91;5001314;28;20497;-44
2023/01/17 08:34:36;;;;;;;36.57;34.77;;;;;;;2.41;100.00;97876.88;5000083;28;20461;-43
2023/01/17 08:37:03;;;;;;;36.03;33.70;;;;;;;2.43;100.00;97887.97;5001349;28;20446;-44
2023/01/17 08:39:31;;;;;;;35.33;33.47;;;;;;;2.55;100.00;97880.19;4992730;28;20435;-45
2023/01/17 08:41:59;;;;;;;34.10;32.40;;;;;;;2.63;100.00;97885.19;4985559;28;20435;-45
2023/01/17 08:44:26;;;;;;;35.30;33.30;;;;;;;2.73;100.00;97891.59;4980431;28;20462;-43
2023/01/17 08:46:56;;;;;;;34.67;32.80;;;;;;;2.82;100.00;97893.94;4981643;28;20840;-43
2023/01/17 08:49:23;;;;;;;34.43;32.50;;;;;;;2.86;100.00;97900.38;4981425;28;20423;-44
2023/01/17 08:51:51;;;;;;;36.37;34.03;;;;;;;2.93;100.00;97901.91;4981843;28;20435;-45
2023/01/17 08:54:21;;;;;;;36.30;34.50;;;;;;;2.95;100.00;97902.53;4981248;28;20470;-45
2023/01/17 08:56:48;;;;;;;36.43;34.73;;;;;;;2.92;100.00;97904.78;4981099;28;20482;-43
2023/01/17 08:59:16;;;;;;;35.47;33.67;;;;;;;2.97;100.00;97913.63;4982064;28;20445;-45
2023/01/17 09:01:44;;;;;;;36.40;34.50;;;;;;;3.03;100.00;97917.22;4981559;28;20454;-43
2023/01/17 09:04:14;;;;;;;35.80;33.70;;;;;;;3.06;100.00;97920.22;4980115;28;20458;-46
2023/01/17 09:06:44;;;;;;;33.90;32.00;;;;;;;3.10;100.00;97915.34;4981296;28;20474;-44
2023/01/17 09:09:12;;;;;;;35.93;33.50;;;;;;;3.15;100.00;97931.28;4981331;28;20476;-47
2023/01/17 09:11:40;;;;;;;35.17;33.10;;;;;;;3.22;100.00;97926.78;4982321;28;20431;-46
2023/01/17 09:14:07;;;;;;;34.87;32.63;;;;;;;3.28;100.00;97939.88;4980294;28;20513;-44
2023/01/17 09:16:35;;;;;;;33.67;31.87;;;;;;;3.33;100.00;97953.19;4981236;28;20463;-44
2023/01/17 09:19:03;;;;;;;35.13;33.00;;;;;;;3.35;100.00;97952.97;4981055;28;20439;-46
2023/01/17 09:21:32;;;;;;;34.53;32.37;;;;;;;3.36;100.00;97954.56;4982141;28;20940;-46
2023/01/17 09:23:59;;;;;;;33.10;30.60;;;;;;;3.29;100.00;97953.81;4984228;28;20530;-49
2023/01/17 09:26:29;;;;;;;31.60;29.90;;;;;;;3.20;100.00;97944.59;4984725;28;20465;-46
2023/01/17 09:28:57;;;;;;;32.40;30.60;;;;;;;3.24;100.00;97951.06;4985333;28;20844;-46
2023/01/17 09:31:26;;;;;;;31.03;29.50;;;;;;;3.27;100.00;97956.69;4984431;28;20458;-44
2023/01/17 09:33:55;;;;;;;32.13;30.53;;;;;;;3.38;100.00;97959.63;4983535;28;20561;-43
2023/01/17 09:36:27;;;;;;;32.73;30.73;;;;;;;3.45;100.00;97971.72;4984449;28;20455;-45
2023/01/17 09:38:58;;;;;;;33.07;31.37;;;;;;;3.53;100.00;97976.69;4984331;28;20461;-44
2023/01/17 09:41:28;;;;;;;33.20;31.40;;;;;;;3.56;100.00;97988.63;4995837;28;20438;-44
2023/01/17 09:44:01;;;;;;;32.87;30.90;;;;;;;3.51;100.00;98004.28;5003194;28;20480;-44
2023/01/17 09:46:32;;;;;;;33.33;31.47;;;;;;;3.45;100.00;98011.22;5003709;28;20464;-45
2023/01/17 09:49:06;;;;;;;33.07;31.30;;;;;;;3.38;100.00;97994.66;5004085;28;20430;-44
2023/01/17 09:51:34;;;;;;;31.10;29.20;;;;;;;3.38;100.00;97988.59;5004204;28;20437;-45
2023/01/17 09:54:04;;;;;;;29.63;27.97;;;;;;;3.33;100.00;97991.88;5002919;28;20485;-48
2023/01/17 09:56:37;;;;;;;29.77;27.83;;;;;;;3.38;100.00;97999.94;5005639;28;20461;-48
2023/01/17 09:59:19;;;;;;;29.70;27.80;;;;;;;3.41;100.00;98001.31;5005158;28;20782;-46
2023/01/17 10:01:56;;;;;;;29.30;28.03;;;;;;;3.49;100.00;97995.78;5004869;28;20445;-51
2023/01/17 10:04:50;;;;;;;30.70;29.00;;;;;;;3.66;100.00;97992.38;5004010;28;20470;-49
2023/01/17 10:07:31;;;;;;;29.90;28.37;;;;;;;3.70;100.00;97990.88;5004733;28;20469;-46
2023/01/17 10:10:23;;;;;;;32.43;30.63;;;;;;;3.85;100.00;97988.69;5005901;28;20427;-47
2023/01/17 10:12:58;;;;;;;33.00;30.87;;;;;;;3.86;100.00;98003.50;5004206;28;20458;-49
2023/01/17 10:15:44;;;;;;;32.10;29.90;;;;;;;3.82;100.00;98009.44;5004429;28;20786;-48
2023/01/17 10:18:38;;;;;;;33.00;31.30;;;;;;;3.73;100.00;98026.56;5004578;28;20426;-47
2023/01/17 10:21:12;;;;;;;30.37;28.87;;;;;;;3.72;100.00;98014.41;4998785;28;20449;-48
2023/01/17 10:24:04;;;;;;;30.03;28.53;;;;;;;3.70;100.00;98011.19;5004195;28;20564;-44
2023/01/17 10:26:34;;;;;;;32.63;31.03;;;;;;;3.89;100.00;98016.22;5002409;28;20501;-45
2023/01/17 10:29:05;;;;;;;31.17;29.50;;;;;;;4.06;100.00;98024.34;5002873;28;20511;-45
2023/01/17 10:31:40;;;;;;;29.80;28.40;;;;;;;4.29;100.00;98010.50;5003891;28;20488;-46
2023/01/17 10:34:14;;;;;;;30.23;28.83;;;;;;;4.49;100.00;98011.03;5002187;28;20820;-46
2023/01/17 10:36:45;;;;;;;30.33;28.70;;;;;;;4.60;100.00;98009.47;5003114;28;20461;-45
2023/01/17 10:39:19;;;;;;;29.60;28.00;;;;;;;4.69;100.00;98014.19;4993901;28;20436;-44
2023/01/17 10:41:55;;;;;;;31.00;29.30;;;;;;;4.88;100.00;98012.28;4997157;28;20418;-46
2023/01/17 10:44:29;;;;;;;30.40;28.80;;;;;;;5.06;100.00;98011.41;5002385;28;20508;-44
2023/01/17 10:47:05;;;;;;;30.47;28.57;;;;;;;5.02;100.00;98001.31;5003064;28;21004;-44
2023/01/17 10:49:33;;;;;;;31.37;29.53;;;;;;;5.08;100.00;98002.22;5003095;28;20457;-44
2023/01/17 10:52:13;;;;;;;31.10;29.00;;;;;;;5.20;100.00;98002.22;5003388;28;20803;-44
2023/01/17 10:54:53;;;;;;;29.60;28.10;;;;;;;5.17;100.00;98006.13;5001706;28;20464;-46
2023/01/17 10:57:23;;;;;;;31.10;29.40;;;;;;;5.25;100.00;98011.09;5003283;28;20449;-45
2023/01/17 10:59:53;;;;;;;26.90;25.70;;;;;;;5.26;100.00;98011.88;5002540;28;20436;-45
2023/01/17 11:02:24;;;;;;;28.47;26.93;;;;;;;5.41;100.00;98009.59;5002671;28;20434;-44
2023/01/17 11:04:54;;;;;;;29.53;27.43;;;;;;;5.40;100.00;98023.88;5002672;28;20438;-44
2023/01/17 11:07:23;;;;;;;30.07;27.90;;;;;;;5.17;100.00;98013.28;5002797;28;20457;-48
2023/01/17 11:09:52;;;;;;;27.70;26.50;;;;;;;4.95;100.00;98021.75;5002792;28;20430;-45
2023/01/17 11:12:26;;;;;;;26.53;25.33;;;;;;;4.86;100.00;98028.38;5002418;28;20501;-44
2023/01/17 11:15:00;;;;;;;27.20;25.90;;;;;;;4.75;100.00;98033.63;5001920;28;20438;-44
2023/01/17 11:17:29;;;;;;;26.77;25.67;;;;;;;4.66;100.00;98030.47;5002869;28;20469;-44
2023/01/17 11:20:15;;;;;;;26.13;25.10;;;;;;;4.61;100.00;98034.81;5002014;28;20422;-45
2023/01/17 11:22:48;;;;;;;26.97;25.63;;;;;;;4.47;100.00;98040.28;5001987;28;20453;-44
2023/01/17 11:25:21;;;;;;;26.67;25.47;;;;;;;4.54;100.00;98037.53;5002521;28;20430;-47
2023/01/17 11:28:01;;;;;;;27.70;26.50;;;;;;;4.49;100.00;98034.78;5002718;28;20477;-46
2023/01/17 11:30:29;;;;;;;26.83;25.50;;;;;;;4.50;100.00;98054.88;5001944;28;20436;-44
2023/01/17 11:32:58;;;;;;;28.30;26.87;;;;;;;4.47;100.00;98050.84;5001514;28;20504;-46
2023/01/17 11:35:28;;;;;;;29.43;27.50;;;;;;;4.42;100.00;98052.56;5002878;28;20445;-44
2023/01/17 11:38:05;;;;;;;26.23;25.13;;;;;;;4.46;100.00;98054.50;4995236;28;20446;-44
2023/01/17 11:40:37;;;;;;;27.20;25.60;;;;;;;4.61;100.00;98048.81;4982512;28;20423;-44
2023/01/17 11:43:22;;;;;;;25.60;24.33;;;;;;;4.62;100.00;98058.38;4982119;28;20462;-44
2023/01/17 11:46:06;;;;;;;22.70;21.90;;;;;;;4.62;100.00;98052.28;4982111;28;20891;-52
2023/01/17 11:48:36;;;;;;;22.67;21.80;;;;;;;4.63;100.00;98048.63;4982493;28;20474;-46
2023/01/17 11:51:14;;;;;;;23.10;22.30;;;;;;;4.83;100.00;98049.94;4982955;28;20456;-44
2023/01/17 11:53:46;;;;;;;22.10;21.30;;;;;;;4.86;100.00;98057.44;4981455;28;20473;-44
2023/01/17 11:56:22;;;;;;;22.43;21.43;;;;;;;4.96;100.00;98046.28;4982011;28;20455;-44
2023/01/17 11:58:51;;;;;;;22.30;21.40;;;;;;;5.08;100.00;98049.00;4982649;28;20523;-44
2023/01/17 12:01:31;;;;;;;21.93;21.03;;;;;;;5.17;100.00;98056.34;4982945;28;20438;-45
2023/01/17 12:04:24;;;;;;;21.93;20.83;;;;;;;5.12;100.00;98063.34;4981670;28;20463;-44
2023/01/17 12:07:05;;;;;;;22.80;21.73;;;;;;;5.25;100.00;98061.31;4982103;28;20450;-45
2023/01/17 12:09:42;;;;;;;21.80;21.00;;;;;;;5.26;100.00;98073.47;4982673;28;20477;-46
2023/01/17 12:15:22;;;;;;;21.87;21.00;;;;;;;5.51;100.00;98068.00;4981778;28;20438;-44
2023/01/17 12:18:18;;;;;;;22.10;21.00;;;;;;;5.43;100.00;98069.16;4982070;28;20466;-44
2023/01/17 12:20:56;;;;;;;22.93;21.50;;;;;;;5.47;100.00;98088.78;4982224;28;20442;-46
2023/01/17 12:23:41;;;;;;;21.73;20.80;;;;;;;5.41;100.00;98084.41;4981080;28;20493;-44
2023/01/17 12:26:27;;;;;;;21.43;20.43;;;;;;;5.36;100.00;98084.28;4982192;28;20454;-47
2023/01/17 12:29:09;;;;;;;21.33;20.33;;;;;;;5.37;100.00;98108.88;4982823;28;21007;-47
2023/01/17 12:31:44;;;;;;;22.13;21.23;;;;;;;5.33;100.00;98105.88;4982932;28;20423;-48
2023/01/17 12:34:21;;;;;;;22.73;21.73;;;;;;;5.17;100.00;98103.88;4981433;28;20538;-46
2023/01/17 12:36:54;;;;;;;23.23;22.13;;;;;;;4.91;100.00;98115.63;4982421;28;20484;-47
2023/01/17 12:39:28;;;;;;;25.03;23.70;;;;;;;4.65;100.00;98126.56;4982744;28;20441;-46
2023/01/17 12:42:03;;;;;;;25.63;24.63;;;;;;;4.39;100.00;98124.22;4997900;28;20454;-46
2023/01/17 12:44:51;;;;;;;26.03;24.93;;;;;;;3.99;100.00;98133.56;5001604;28;20469;-46
2023/01/17 12:47:21;;;;;;;27.63;26.20;;;;;;;3.88;100.00;98138.53;5001576;28;20470;-48
2023/01/17 12:50:02;;;;;;;28.10;26.90;;;;;;;3.58;100.00;98136.78;5002298;28;20473;-49
2023/01/17 12:52:41;;;;;;;26.33;25.33;;;;;;;3.27;100.00;98137.59;5001155;28;20414;-48
2023/01/17 12:55:14;;;;;;;26.83;25.90;;;;;;;3.06;100.00;98136.13;5001130;28;20484;-44
2023/01/17 12:57:46;;;;;;;26.50;25.60;;;;;;;2.86;100.00;98153.03;5003341;28;20476;-47
2023/01/17 13:00:21;;;;;;;26.43;25.33;;;;;;;2.69;100.00;98155.34;5005006;28;20780;-46
2023/01/17 13:02:56;;;;;;;25.67;24.77;;;;;;;2.61;100.00;98160.84;5004707;28;20461;-46